createdAt,value
2017-09-26T00:00:04.180Z,8.94
2017-09-26T00:00:08.399Z,8.94
2017-09-26T00:00:12.737Z,8.94
2017-09-26T00:00:16.954Z,8.95
2017-09-26T00:00:21.042Z,8.96
2017-09-26T00:00:25.254Z,8.96
2017-09-26T00:00:29.341Z,8.96
2017-09-26T00:00:33.804Z,8.97
2017-09-26T00:00:38.143Z,8.98
2017-09-26T00:00:42.230Z,8.97
2017-09-26T00:00:46.702Z,8.99
2017-09-26T00:00:51.164Z,8.98
2017-09-26T00:00:55.517Z,8.98
2017-09-26T00:00:59.975Z,8.99
2017-09-26T00:01:04.594Z,9
2017-09-26T00:01:08.813Z,9.01
2017-09-26T00:01:13.024Z,9
2017-09-26T00:01:16.990Z,9.01
2017-09-26T00:01:21.454Z,9.01
2017-09-26T00:01:25.676Z,9.02
2017-09-26T00:01:30.010Z,9.01
2017-09-26T00:01:34.227Z,9.02
2017-09-26T00:01:38.449Z,9.02
2017-09-26T00:01:42.908Z,9.02
2017-09-26T00:01:47.375Z,9.03
2017-09-26T00:01:51.591Z,9.04
2017-09-26T00:01:55.549Z,9.04
2017-09-26T00:01:59.885Z,9.04
2017-09-26T00:02:04.222Z,9.04
2017-09-26T00:02:08.432Z,9.04
2017-09-26T00:02:12.768Z,9.05
2017-09-26T00:02:17.105Z,9.04
2017-09-26T00:02:21.199Z,9.05
2017-09-26T00:02:25.538Z,9.05
2017-09-26T00:02:29.874Z,9.05
2017-09-26T00:02:34.226Z,9.06
2017-09-26T00:02:38.434Z,9.06
2017-09-26T00:02:42.769Z,9.06
2017-09-26T00:02:46.980Z,9.06
2017-09-26T00:02:51.319Z,9.07
2017-09-26T00:02:55.541Z,9.06
2017-09-26T00:02:59.630Z,9.08
2017-09-26T00:03:04.022Z,9.08
2017-09-26T00:03:08.365Z,9.07
2017-09-26T00:03:12.709Z,9.08
2017-09-26T00:03:17.051Z,9.08
2017-09-26T00:03:21.635Z,9.08
2017-09-26T00:03:25.967Z,9.1
2017-09-26T00:03:30.177Z,9.09
2017-09-26T00:03:34.396Z,9.09
2017-09-26T00:03:38.605Z,9.09
2017-09-26T00:03:42.691Z,9.09
2017-09-26T00:03:46.778Z,9.09
2017-09-26T00:03:51.375Z,9.09
2017-09-26T00:03:55.588Z,9.1
2017-09-26T00:03:59.674Z,9.1
2017-09-26T00:04:04.012Z,9.1
2017-09-26T00:04:08.352Z,9.1
2017-09-26T00:04:12.569Z,9.1
2017-09-26T00:04:16.911Z,9.1
2017-09-26T00:04:21.375Z,9.11
2017-09-26T00:04:25.337Z,9.11
2017-09-26T00:04:29.434Z,9.11
2017-09-26T00:04:33.532Z,9.1
2017-09-26T00:04:37.755Z,9.11
2017-09-26T00:04:41.981Z,9.12
2017-09-26T00:04:46.327Z,9.11
2017-09-26T00:04:50.674Z,9.12
2017-09-26T00:04:55.025Z,9.12
2017-09-26T00:04:59.250Z,9.12
2017-09-26T00:05:03.597Z,9.13
2017-09-26T00:05:07.821Z,9.13
2017-09-26T00:05:12.301Z,9.13
2017-09-26T00:05:17.024Z,9.12
2017-09-26T00:05:21.253Z,9.14
2017-09-26T00:05:25.726Z,9.14
2017-09-26T00:05:30.325Z,9.14
2017-09-26T00:05:34.428Z,9.15
2017-09-26T00:05:38.401Z,9.14
2017-09-26T00:05:42.879Z,9.14
2017-09-26T00:05:46.855Z,9.14
2017-09-26T00:05:51.120Z,9.14
2017-09-26T00:05:55.468Z,9.14
2017-09-26T00:05:59.567Z,9.15
2017-09-26T00:06:04.020Z,9.15
2017-09-26T00:06:08.253Z,9.15
2017-09-26T00:06:12.481Z,9.16
2017-09-26T00:06:16.833Z,9.16
2017-09-26T00:06:21.194Z,9.16
2017-09-26T00:06:25.573Z,9.16
2017-09-26T00:06:29.674Z,9.17
2017-09-26T00:06:34.152Z,9.16
2017-09-26T00:06:38.666Z,9.17
2017-09-26T00:06:42.764Z,9.17
2017-09-26T00:06:47.237Z,9.17
2017-09-26T00:06:51.595Z,9.17
2017-09-26T00:06:56.071Z,9.18
2017-09-26T00:07:00.299Z,9.18
2017-09-26T00:07:04.649Z,9.19
2017-09-26T00:07:08.872Z,9.18
2017-09-26T00:07:13.475Z,9.19
2017-09-26T00:07:17.823Z,9.19
2017-09-26T00:07:22.171Z,9.19
2017-09-26T00:07:26.401Z,9.19
2017-09-26T00:07:30.508Z,9.19
2017-09-26T00:07:35.110Z,9.2
2017-09-26T00:07:39.336Z,9.19
2017-09-26T00:07:43.825Z,9.2
2017-09-26T00:07:48.055Z,9.2
2017-09-26T00:07:52.279Z,9.2
2017-09-26T00:07:56.509Z,9.2
2017-09-26T00:08:00.995Z,9.2
2017-09-26T00:08:05.476Z,9.21
2017-09-26T00:08:09.956Z,9.21
2017-09-26T00:08:14.428Z,9.21
2017-09-26T00:08:18.907Z,9.21
2017-09-26T00:08:23.135Z,9.22
2017-09-26T00:08:27.612Z,9.22
2017-09-26T00:08:31.845Z,9.22
2017-09-26T00:08:36.078Z,9.23
2017-09-26T00:08:40.429Z,9.24
2017-09-26T00:08:44.784Z,9.23
2017-09-26T00:08:49.009Z,9.24
2017-09-26T00:08:53.486Z,9.25
2017-09-26T00:08:58.210Z,9.25
2017-09-26T00:09:02.487Z,9.25
2017-09-26T00:09:06.839Z,9.26
2017-09-26T00:09:11.067Z,9.26
2017-09-26T00:09:15.170Z,9.26
2017-09-26T00:09:19.396Z,9.28
2017-09-26T00:09:23.620Z,9.28
2017-09-26T00:09:28.098Z,9.28
2017-09-26T00:09:32.322Z,9.27
2017-09-26T00:09:36.422Z,9.27
2017-09-26T00:09:40.546Z,9.28
2017-09-26T00:09:44.876Z,9.29
2017-09-26T00:09:49.356Z,9.3
2017-09-26T00:09:53.581Z,9.3
2017-09-26T00:09:57.941Z,9.3
2017-09-26T00:10:02.543Z,9.3
2017-09-26T00:10:07.019Z,9.31
2017-09-26T00:10:11.377Z,9.31
2017-09-26T00:10:15.354Z,9.32
2017-09-26T00:10:19.582Z,9.31
2017-09-26T00:10:23.809Z,9.32
2017-09-26T00:10:27.913Z,9.33
2017-09-26T00:10:32.273Z,9.33
2017-09-26T00:10:36.622Z,9.33
2017-09-26T00:10:40.725Z,9.33
2017-09-26T00:10:44.954Z,9.34
2017-09-26T00:10:49.306Z,9.35
2017-09-26T00:10:53.656Z,9.35
2017-09-26T00:10:58.012Z,9.35
2017-09-26T00:11:02.495Z,9.36
2017-09-26T00:11:06.603Z,9.36
2017-09-26T00:11:10.954Z,9.37
2017-09-26T00:11:15.177Z,9.36
2017-09-26T00:11:19.530Z,9.37
2017-09-26T00:11:23.631Z,9.37
2017-09-26T00:11:27.856Z,9.37
2017-09-26T00:11:31.958Z,9.38
2017-09-26T00:11:36.436Z,9.38
2017-09-26T00:11:40.661Z,9.39
2017-09-26T00:11:44.883Z,9.38
2017-09-26T00:11:49.107Z,9.39
2017-09-26T00:11:53.466Z,9.4
2017-09-26T00:11:57.817Z,9.39
2017-09-26T00:12:02.040Z,9.4
2017-09-26T00:12:06.270Z,9.4
2017-09-26T00:12:10.743Z,9.4
2017-09-26T00:12:14.718Z,9.41
2017-09-26T00:12:18.940Z,9.4
2017-09-26T00:12:23.040Z,9.41
2017-09-26T00:12:27.390Z,9.41
2017-09-26T00:12:31.863Z,9.42
2017-09-26T00:12:36.221Z,9.41
2017-09-26T00:12:40.476Z,9.42
2017-09-26T00:12:44.833Z,9.42
2017-09-26T00:12:49.313Z,9.43
2017-09-26T00:12:53.542Z,9.43
2017-09-26T00:12:58.016Z,9.43
2017-09-26T00:13:02.440Z,9.43
2017-09-26T00:13:06.913Z,9.44
2017-09-26T00:13:11.388Z,9.43
2017-09-26T00:13:15.489Z,9.44
2017-09-26T00:13:19.960Z,9.44
2017-09-26T00:13:24.441Z,9.45
2017-09-26T00:13:28.667Z,9.45
2017-09-26T00:13:32.917Z,9.45
2017-09-26T00:13:37.143Z,9.46
2017-09-26T00:13:41.243Z,9.46
2017-09-26T00:13:45.718Z,9.46
2017-09-26T00:13:50.067Z,9.46
2017-09-26T00:13:54.543Z,9.46
2017-09-26T00:13:58.795Z,9.46
2017-09-26T00:14:02.876Z,9.46
2017-09-26T00:14:06.980Z,9.47
2017-09-26T00:14:10.972Z,9.46
2017-09-26T00:14:15.327Z,9.47
2017-09-26T00:14:19.709Z,9.48
2017-09-26T00:14:24.056Z,9.48
2017-09-26T00:14:28.660Z,9.47
2017-09-26T00:14:32.884Z,9.48
2017-09-26T00:14:36.984Z,9.48
2017-09-26T00:14:40.959Z,9.48
2017-09-26T00:14:45.184Z,9.48
2017-09-26T00:14:49.661Z,9.48
2017-09-26T00:14:54.009Z,9.49
2017-09-26T00:14:58.108Z,9.48
2017-09-26T00:15:02.735Z,9.5
2017-09-26T00:15:06.961Z,9.49
2017-09-26T00:15:11.061Z,9.49
2017-09-26T00:15:15.286Z,9.5
2017-09-26T00:15:19.637Z,9.49
2017-09-26T00:15:23.611Z,9.5
2017-09-26T00:15:27.836Z,9.5
2017-09-26T00:15:32.066Z,9.5
2017-09-26T00:15:36.419Z,9.51
2017-09-26T00:15:40.769Z,9.5
2017-09-26T00:15:45.245Z,9.5
2017-09-26T00:15:49.597Z,9.51
2017-09-26T00:15:53.854Z,9.51
2017-09-26T00:15:58.331Z,9.51
2017-09-26T00:16:03.368Z,9.51
2017-09-26T00:16:07.597Z,9.51
2017-09-26T00:16:11.826Z,9.52
2017-09-26T00:16:15.927Z,9.51
2017-09-26T00:16:20.028Z,9.52
2017-09-26T00:16:24.380Z,9.52
2017-09-26T00:16:28.731Z,9.52
2017-09-26T00:16:33.080Z,9.53
2017-09-26T00:16:37.558Z,9.51
2017-09-26T00:16:42.037Z,9.52
2017-09-26T00:16:46.639Z,9.52
2017-09-26T00:16:50.743Z,9.52
2017-09-26T00:16:55.349Z,9.52
2017-09-26T00:16:59.827Z,9.53
2017-09-26T00:17:04.253Z,9.51
2017-09-26T00:17:08.729Z,9.53
2017-09-26T00:17:13.078Z,9.52
2017-09-26T00:17:17.309Z,9.54
2017-09-26T00:17:21.532Z,9.52
2017-09-26T00:17:26.009Z,9.53
2017-09-26T00:17:30.237Z,9.54
2017-09-26T00:17:34.464Z,9.54
2017-09-26T00:17:38.694Z,9.54
2017-09-26T00:17:42.920Z,9.54
2017-09-26T00:17:47.021Z,9.54
2017-09-26T00:17:51.285Z,9.54
2017-09-26T00:17:55.637Z,9.54
2017-09-26T00:18:00.234Z,9.54
2017-09-26T00:18:04.466Z,9.54
2017-09-26T00:18:08.693Z,9.54
2017-09-26T00:18:13.044Z,9.54
2017-09-26T00:18:17.145Z,9.54
2017-09-26T00:18:21.246Z,9.54
2017-09-26T00:18:25.600Z,9.54
2017-09-26T00:18:29.575Z,9.54
2017-09-26T00:18:34.101Z,9.54
2017-09-26T00:18:38.204Z,9.54
2017-09-26T00:18:42.553Z,9.54
2017-09-26T00:18:46.777Z,9.54
2017-09-26T00:18:51.001Z,9.54
2017-09-26T00:18:55.101Z,9.54
2017-09-26T00:18:59.712Z,9.54
2017-09-26T00:19:04.516Z,9.54
2017-09-26T00:19:08.993Z,9.54
2017-09-26T00:19:13.346Z,9.54
2017-09-26T00:19:17.694Z,9.54
2017-09-26T00:19:21.671Z,9.52
2017-09-26T00:19:26.024Z,9.53
2017-09-26T00:19:30.124Z,9.53
2017-09-26T00:19:34.223Z,9.53
2017-09-26T00:19:38.570Z,9.54
2017-09-26T00:19:42.923Z,9.53
2017-09-26T00:19:47.150Z,9.54
2017-09-26T00:19:51.249Z,9.54
2017-09-26T00:19:55.475Z,9.53
2017-09-26T00:19:59.702Z,9.53
2017-09-26T00:20:03.806Z,9.53
2017-09-26T00:20:08.051Z,9.53
2017-09-26T00:20:12.149Z,9.52
2017-09-26T00:20:16.379Z,9.52
2017-09-26T00:20:20.607Z,9.53
2017-09-26T00:20:25.209Z,9.53
2017-09-26T00:20:29.437Z,9.53
2017-09-26T00:20:33.414Z,9.53
2017-09-26T00:20:37.641Z,9.53
2017-09-26T00:20:41.990Z,9.53
2017-09-26T00:20:46.465Z,9.52
2017-09-26T00:20:50.818Z,9.52
2017-09-26T00:20:55.305Z,9.52
2017-09-26T00:20:59.405Z,9.52
2017-09-26T00:21:03.636Z,9.51
2017-09-26T00:21:08.008Z,9.52
2017-09-26T00:21:12.217Z,9.51
2017-09-26T00:21:16.323Z,9.51
2017-09-26T00:21:20.306Z,9.51
2017-09-26T00:21:24.535Z,9.51
2017-09-26T00:21:28.762Z,9.51
2017-09-26T00:21:32.863Z,9.5
2017-09-26T00:21:37.088Z,9.52
2017-09-26T00:21:41.316Z,9.52
2017-09-26T00:21:45.542Z,9.51
2017-09-26T00:21:49.768Z,9.51
2017-09-26T00:21:53.744Z,9.51
2017-09-26T00:21:57.847Z,9.5
2017-09-26T00:22:02.350Z,9.5
2017-09-26T00:22:06.450Z,9.51
2017-09-26T00:22:10.804Z,9.51
2017-09-26T00:22:15.414Z,9.51
2017-09-26T00:22:19.765Z,9.5
2017-09-26T00:22:23.990Z,9.51
2017-09-26T00:22:28.218Z,9.5
2017-09-26T00:22:32.486Z,9.5
2017-09-26T00:22:36.714Z,9.51
2017-09-26T00:22:40.814Z,9.49
2017-09-26T00:22:45.046Z,9.5
2017-09-26T00:22:49.273Z,9.5
2017-09-26T00:22:53.749Z,9.5
2017-09-26T00:23:29.907Z,9.5
2017-09-26T00:23:33.887Z,9.5
2017-09-26T00:23:38.112Z,9.49
2017-09-26T00:23:42.091Z,9.5
2017-09-26T00:23:46.207Z,9.5
2017-09-26T00:23:50.564Z,9.49
2017-09-26T00:23:54.547Z,9.48
2017-09-26T00:23:58.900Z,9.49
2017-09-26T00:24:03.304Z,9.48
2017-09-26T00:24:07.655Z,9.48
2017-09-26T00:24:12.135Z,9.48
2017-09-26T00:24:16.236Z,9.48
2017-09-26T00:24:20.716Z,9.48
2017-09-26T00:24:24.819Z,9.49
2017-09-26T00:24:29.304Z,9.48
2017-09-26T00:24:33.280Z,9.5
2017-09-26T00:24:37.505Z,9.48
2017-09-26T00:24:42.015Z,9.48
2017-09-26T00:24:46.365Z,9.48
2017-09-26T00:24:50.464Z,9.47
2017-09-26T00:24:54.565Z,9.47
2017-09-26T00:24:58.932Z,9.46
2017-09-26T00:25:03.291Z,9.47
2017-09-26T00:25:07.775Z,9.46
2017-09-26T00:25:12.257Z,9.46
2017-09-26T00:25:16.361Z,9.46
2017-09-26T00:25:20.713Z,9.46
2017-09-26T00:25:24.942Z,9.45
2017-09-26T00:25:29.425Z,9.45
2017-09-26T00:25:33.662Z,9.43
2017-09-26T00:25:38.023Z,9.44
2017-09-26T00:25:42.256Z,9.44
2017-09-26T00:25:46.358Z,9.43
2017-09-26T00:25:50.709Z,9.43
2017-09-26T00:25:54.937Z,9.43
2017-09-26T00:25:59.162Z,9.42
2017-09-26T00:26:03.517Z,9.42
2017-09-26T00:26:07.865Z,9.41
2017-09-26T00:26:12.094Z,9.4
2017-09-26T00:26:16.586Z,9.4
2017-09-26T00:26:21.102Z,9.4
2017-09-26T00:26:25.452Z,9.4
2017-09-26T00:26:29.676Z,9.39
2017-09-26T00:26:34.030Z,9.38
2017-09-26T00:26:38.260Z,9.38
2017-09-26T00:26:42.370Z,9.37
2017-09-26T00:26:46.845Z,9.37
2017-09-26T00:26:50.946Z,9.37
2017-09-26T00:26:55.049Z,9.36
2017-09-26T00:26:59.410Z,9.36
2017-09-26T00:27:03.635Z,9.36
2017-09-26T00:27:07.736Z,9.34
2017-09-26T00:27:11.965Z,9.34
2017-09-26T00:27:16.067Z,9.34
2017-09-26T00:27:20.417Z,9.32
2017-09-26T00:27:24.645Z,9.32
2017-09-26T00:27:29.122Z,9.32
2017-09-26T00:27:33.226Z,9.32
2017-09-26T00:27:37.577Z,9.31
2017-09-26T00:27:41.804Z,9.31
2017-09-26T00:27:46.032Z,9.3
2017-09-26T00:27:50.257Z,9.3
2017-09-26T00:27:54.361Z,9.29
2017-09-26T00:27:58.714Z,9.28
2017-09-26T00:28:03.192Z,9.26
2017-09-26T00:28:07.295Z,9.27
2017-09-26T00:28:11.647Z,9.25
2017-09-26T00:28:15.750Z,9.26
2017-09-26T00:28:20.100Z,9.25
2017-09-26T00:28:24.328Z,9.25
2017-09-26T00:28:28.555Z,9.23
2017-09-26T00:28:33.068Z,9.23
2017-09-26T00:28:37.419Z,9.22
2017-09-26T00:28:41.773Z,9.21
2017-09-26T00:28:46.254Z,9.21
2017-09-26T00:28:50.741Z,9.21
2017-09-26T00:28:55.091Z,9.19
2017-09-26T00:28:59.567Z,9.2
2017-09-26T00:29:03.672Z,9.19
2017-09-26T00:29:07.918Z,9.19
2017-09-26T00:29:12.517Z,9.18
2017-09-26T00:29:16.618Z,9.18
2017-09-26T00:29:20.971Z,9.17
2017-09-26T00:29:25.324Z,9.16
2017-09-26T00:29:29.300Z,9.16
2017-09-26T00:29:33.526Z,9.15
2017-09-26T00:29:37.630Z,9.14
2017-09-26T00:29:41.854Z,9.14
2017-09-26T00:29:46.456Z,9.14
2017-09-26T00:29:50.808Z,9.13
2017-09-26T00:29:55.185Z,9.12
2017-09-26T00:29:59.535Z,9.12
2017-09-26T00:30:03.889Z,9.11
2017-09-26T00:30:07.994Z,9.1
2017-09-26T00:30:12.224Z,9.1
2017-09-26T00:30:16.327Z,9.1
2017-09-26T00:30:20.435Z,9.09
2017-09-26T00:30:24.796Z,9.1
2017-09-26T00:30:29.147Z,9.07
2017-09-26T00:30:33.377Z,9.07
2017-09-26T00:30:37.607Z,9.07
2017-09-26T00:30:41.836Z,9.06
2017-09-26T00:30:46.317Z,9.06
2017-09-26T00:30:50.669Z,9.05
2017-09-26T00:30:55.020Z,9.04
2017-09-26T00:30:59.154Z,9.04
2017-09-26T00:31:03.655Z,9.04
2017-09-26T00:31:07.880Z,9.02
2017-09-26T00:31:12.237Z,9.02
2017-09-26T00:31:16.477Z,9.01
2017-09-26T00:31:20.952Z,9.01
2017-09-26T00:31:25.555Z,9.01
2017-09-26T00:31:29.656Z,8.99
2017-09-26T00:31:34.133Z,8.98
2017-09-26T00:31:38.358Z,8.99
2017-09-26T00:31:42.708Z,8.98
2017-09-26T00:31:46.809Z,8.98
2017-09-26T00:31:51.162Z,8.96
2017-09-26T00:31:55.513Z,8.95
2017-09-26T00:31:59.743Z,8.95
2017-09-26T00:32:04.223Z,8.95
2017-09-26T00:32:08.456Z,8.95
2017-09-26T00:32:12.806Z,8.94
2017-09-26T00:32:17.031Z,8.93
2017-09-26T00:32:21.259Z,8.93
2017-09-26T00:32:25.485Z,8.92
2017-09-26T00:32:29.709Z,8.91
2017-09-26T00:32:33.812Z,8.91
2017-09-26T00:32:38.419Z,8.91
2017-09-26T00:32:42.644Z,8.9
2017-09-26T00:32:46.872Z,8.89
2017-09-26T00:32:51.347Z,8.88
2017-09-26T00:32:55.489Z,8.88
2017-09-26T00:32:59.968Z,8.87
2017-09-26T00:33:04.193Z,8.87
2017-09-26T00:33:08.425Z,8.87
2017-09-26T00:33:12.780Z,8.86
2017-09-26T00:33:17.007Z,8.84
2017-09-26T00:33:21.235Z,8.84
2017-09-26T00:33:25.595Z,8.84
2017-09-26T00:33:29.822Z,8.83
2017-09-26T00:33:34.184Z,8.83
2017-09-26T00:33:38.788Z,8.82
2017-09-26T00:33:43.015Z,8.82
2017-09-26T00:33:47.371Z,8.82
2017-09-26T00:33:51.612Z,8.81
2017-09-26T00:33:56.088Z,8.8
2017-09-26T00:34:00.440Z,8.8
2017-09-26T00:34:04.914Z,8.79
2017-09-26T00:34:09.015Z,8.79
2017-09-26T00:34:13.376Z,8.78
2017-09-26T00:34:17.730Z,8.78
2017-09-26T00:34:21.832Z,8.76
2017-09-26T00:34:26.058Z,8.76
2017-09-26T00:34:30.159Z,8.77
2017-09-26T00:34:34.142Z,8.76
2017-09-26T00:34:38.494Z,8.75
2017-09-26T00:34:42.597Z,8.75
2017-09-26T00:34:46.951Z,8.75
2017-09-26T00:34:51.182Z,8.74
2017-09-26T00:34:55.283Z,8.74
2017-09-26T00:34:59.634Z,8.73
2017-09-26T00:35:04.186Z,8.73
2017-09-26T00:35:08.536Z,8.72
2017-09-26T00:35:12.887Z,8.72
2017-09-26T00:35:17.112Z,8.71
2017-09-26T00:35:21.465Z,8.71
2017-09-26T00:35:25.969Z,8.7
2017-09-26T00:35:30.071Z,8.7
2017-09-26T00:35:34.672Z,8.69
2017-09-26T00:35:38.903Z,8.69
2017-09-26T00:35:43.379Z,8.68
2017-09-26T00:35:47.616Z,8.68
2017-09-26T00:35:51.595Z,8.68
2017-09-26T00:35:56.111Z,8.67
2017-09-26T00:36:00.584Z,8.67
2017-09-26T00:36:05.386Z,8.66
2017-09-26T00:36:09.737Z,8.66
2017-09-26T00:36:13.838Z,8.65
2017-09-26T00:36:18.062Z,8.65
2017-09-26T00:36:22.534Z,8.65
2017-09-26T00:36:26.887Z,8.64
2017-09-26T00:36:30.872Z,8.64
2017-09-26T00:36:35.221Z,8.63
2017-09-26T00:36:39.452Z,8.63
2017-09-26T00:36:43.677Z,8.62
2017-09-26T00:36:47.906Z,8.63
2017-09-26T00:36:52.130Z,8.62
2017-09-26T00:36:56.355Z,8.61
2017-09-26T00:37:00.705Z,8.61
2017-09-26T00:37:04.857Z,8.61
2017-09-26T00:37:09.082Z,8.6
2017-09-26T00:37:13.182Z,8.6
2017-09-26T00:37:17.531Z,8.59
2017-09-26T00:37:21.903Z,8.58
2017-09-26T00:37:26.263Z,8.59
2017-09-26T00:37:30.738Z,8.58
2017-09-26T00:37:34.847Z,8.58
2017-09-26T00:37:39.326Z,8.58
2017-09-26T00:37:43.681Z,8.57
2017-09-26T00:37:47.921Z,8.56
2017-09-26T00:37:52.402Z,8.56
2017-09-26T00:37:56.664Z,8.56
2017-09-26T00:38:00.765Z,8.55
2017-09-26T00:38:05.466Z,8.55
2017-09-26T00:38:10.067Z,8.54
2017-09-26T00:38:14.418Z,8.55
2017-09-26T00:38:18.519Z,8.54
2017-09-26T00:38:22.746Z,8.54
2017-09-26T00:38:26.990Z,8.53
2017-09-26T00:38:31.467Z,8.53
2017-09-26T00:38:35.569Z,8.53
2017-09-26T00:38:39.548Z,8.51
2017-09-26T00:38:43.900Z,8.52
2017-09-26T00:38:48.006Z,8.51
2017-09-26T00:38:52.362Z,8.51
2017-09-26T00:38:56.595Z,8.5
2017-09-26T00:39:00.956Z,8.51
2017-09-26T00:39:05.313Z,8.5
2017-09-26T00:39:09.413Z,8.5
2017-09-26T00:39:13.513Z,8.49
2017-09-26T00:39:17.867Z,8.49
2017-09-26T00:39:21.969Z,8.49
2017-09-26T00:39:26.319Z,8.49
2017-09-26T00:39:30.673Z,8.48
2017-09-26T00:39:34.649Z,8.48
2017-09-26T00:39:38.877Z,8.48
2017-09-26T00:39:43.117Z,8.47
2017-09-26T00:39:47.477Z,8.47
2017-09-26T00:39:51.709Z,8.46
2017-09-26T00:39:56.192Z,8.46
2017-09-26T00:40:00.294Z,8.45
2017-09-26T00:40:04.676Z,8.46
2017-09-26T00:40:08.909Z,8.45
2017-09-26T00:40:13.387Z,8.45
2017-09-26T00:40:17.613Z,8.45
2017-09-26T00:40:21.716Z,8.44
2017-09-26T00:40:25.940Z,8.44
2017-09-26T00:40:30.040Z,8.45
2017-09-26T00:40:34.517Z,8.44
2017-09-26T00:40:38.743Z,8.45
2017-09-26T00:40:42.851Z,8.44
2017-09-26T00:40:47.203Z,8.43
2017-09-26T00:40:51.306Z,8.43
2017-09-26T00:40:55.779Z,8.43
2017-09-26T00:41:00.004Z,8.43
2017-09-26T00:41:04.232Z,8.42
2017-09-26T00:41:08.710Z,8.42
2017-09-26T00:41:13.183Z,8.42
2017-09-26T00:41:17.539Z,8.41
2017-09-26T00:41:21.892Z,8.42
2017-09-26T00:41:26.128Z,8.42
2017-09-26T00:41:30.470Z,8.4
2017-09-26T00:41:34.821Z,8.41
2017-09-26T00:41:39.176Z,8.4
2017-09-26T00:41:43.528Z,8.4
2017-09-26T00:41:48.013Z,8.4
2017-09-26T00:41:52.362Z,8.39
2017-09-26T00:41:56.465Z,8.39
2017-09-26T00:42:00.818Z,8.4
2017-09-26T00:42:05.044Z,8.39
2017-09-26T00:42:09.397Z,8.38
2017-09-26T00:42:13.499Z,8.39
2017-09-26T00:42:17.476Z,8.38
2017-09-26T00:42:21.825Z,8.38
2017-09-26T00:42:26.057Z,8.38
2017-09-26T00:42:30.288Z,8.38
2017-09-26T00:42:34.637Z,8.38
2017-09-26T00:42:38.737Z,8.38
2017-09-26T00:42:42.839Z,8.38
2017-09-26T00:42:46.816Z,8.38
2017-09-26T00:42:51.047Z,8.38
2017-09-26T00:42:55.645Z,8.38
2017-09-26T00:42:59.872Z,8.38
2017-09-26T00:43:04.197Z,8.38
2017-09-26T00:43:08.422Z,8.38
2017-09-26T00:43:12.778Z,8.37
2017-09-26T00:43:16.761Z,8.38
2017-09-26T00:43:20.997Z,8.38
2017-09-26T00:43:25.226Z,8.37
2017-09-26T00:43:29.578Z,8.37
2017-09-26T00:43:33.806Z,8.37
2017-09-26T00:43:38.155Z,8.37
2017-09-26T00:43:42.379Z,8.37
2017-09-26T00:43:46.734Z,8.36
2017-09-26T00:43:51.084Z,8.36
2017-09-26T00:43:55.569Z,8.37
2017-09-26T00:43:59.793Z,8.37
2017-09-26T00:44:03.894Z,8.37
2017-09-26T00:44:08.119Z,8.37
2017-09-26T00:44:12.345Z,8.36
2017-09-26T00:44:16.444Z,8.36
2017-09-26T00:44:21.045Z,8.36
2017-09-26T00:44:25.148Z,8.36
2017-09-26T00:44:29.751Z,8.35
2017-09-26T00:44:33.853Z,8.36
2017-09-26T00:44:38.211Z,8.36
2017-09-26T00:44:42.436Z,8.35
2017-09-26T00:44:47.039Z,8.36
2017-09-26T00:44:51.264Z,8.35
2017-09-26T00:44:55.491Z,8.35
2017-09-26T00:44:59.842Z,8.35
2017-09-26T00:45:04.066Z,8.36
2017-09-26T00:45:08.293Z,8.35
2017-09-26T00:45:12.642Z,8.36
2017-09-26T00:45:16.743Z,8.35
2017-09-26T00:45:20.968Z,8.35
2017-09-26T00:45:25.574Z,8.36
2017-09-26T00:45:29.798Z,8.35
2017-09-26T00:45:33.899Z,8.35
2017-09-26T00:45:37.999Z,8.35
2017-09-26T00:45:42.225Z,8.35
2017-09-26T00:45:46.327Z,8.35
2017-09-26T00:45:50.302Z,8.35
2017-09-26T00:45:54.526Z,8.35
2017-09-26T00:45:58.757Z,8.35
2017-09-26T00:46:02.986Z,8.34
2017-09-26T00:46:07.211Z,8.35
2017-09-26T00:46:11.690Z,8.34
2017-09-26T00:46:15.920Z,8.35
2017-09-26T00:46:20.268Z,8.34
2017-09-26T00:46:24.617Z,8.35
2017-09-26T00:46:28.842Z,8.35
2017-09-26T00:46:32.943Z,8.35
2017-09-26T00:46:37.292Z,8.35
2017-09-26T00:46:41.268Z,8.35
2017-09-26T00:46:45.617Z,8.35
2017-09-26T00:46:49.966Z,8.36
2017-09-26T00:46:54.440Z,8.36
2017-09-26T00:46:58.664Z,8.34
2017-09-26T00:47:02.904Z,8.35
2017-09-26T00:47:07.384Z,8.35
2017-09-26T00:47:11.481Z,8.35
2017-09-26T00:47:15.580Z,8.35
2017-09-26T00:47:19.806Z,8.35
2017-09-26T00:47:24.404Z,8.36
2017-09-26T00:47:28.627Z,8.34
2017-09-26T00:47:32.991Z,8.35
2017-09-26T00:47:37.340Z,8.35
2017-09-26T00:47:41.441Z,8.35
2017-09-26T00:47:45.787Z,8.36
2017-09-26T00:47:50.016Z,8.35
2017-09-26T00:47:54.238Z,8.36
2017-09-26T00:47:58.339Z,8.36
2017-09-26T00:48:02.565Z,8.36
2017-09-26T00:48:06.914Z,8.35
2017-09-26T00:48:11.392Z,8.35
2017-09-26T00:48:15.368Z,8.36
2017-09-26T00:48:19.468Z,8.35
2017-09-26T00:48:23.728Z,8.35
2017-09-26T00:48:28.078Z,8.36
2017-09-26T00:48:32.425Z,8.36
2017-09-26T00:48:36.525Z,8.36
2017-09-26T00:48:40.756Z,8.36
2017-09-26T00:48:45.229Z,8.36
2017-09-26T00:48:49.326Z,8.36
2017-09-26T00:48:53.679Z,8.36
2017-09-26T00:48:58.036Z,8.35
2017-09-26T00:49:02.137Z,8.36
2017-09-26T00:49:06.487Z,8.36
2017-09-26T00:49:10.839Z,8.35
2017-09-26T00:49:14.939Z,8.36
2017-09-26T00:49:19.286Z,8.35
2017-09-26T00:49:23.510Z,8.36
2017-09-26T00:49:27.740Z,8.36
2017-09-26T00:49:31.962Z,8.35
2017-09-26T00:49:36.191Z,8.35
2017-09-26T00:49:40.540Z,8.35
2017-09-26T00:49:44.927Z,8.34
2017-09-26T00:49:49.117Z,8.35
2017-09-26T00:49:53.339Z,8.35
2017-09-26T00:49:57.812Z,8.35
2017-09-26T00:50:01.913Z,8.35
2017-09-26T00:50:06.259Z,8.35
2017-09-26T00:50:10.483Z,8.35
2017-09-26T00:50:14.457Z,8.35
2017-09-26T00:50:18.558Z,8.35
2017-09-26T00:50:23.030Z,8.35
2017-09-26T00:50:27.376Z,8.35
2017-09-26T00:50:31.600Z,8.35
2017-09-26T00:50:35.701Z,8.35
2017-09-26T00:50:40.048Z,8.35
2017-09-26T00:50:44.278Z,8.35
2017-09-26T00:50:48.627Z,8.35
2017-09-26T00:50:53.101Z,8.35
2017-09-26T00:50:57.456Z,8.36
2017-09-26T00:51:02.102Z,8.36
2017-09-26T00:51:06.332Z,8.36
2017-09-26T00:51:10.560Z,8.36
2017-09-26T00:51:14.785Z,8.36
2017-09-26T00:51:19.010Z,8.36
2017-09-26T00:51:23.112Z,8.36
2017-09-26T00:51:27.086Z,8.36
2017-09-26T00:51:31.309Z,8.37
2017-09-26T00:51:35.782Z,8.37
2017-09-26T00:51:40.010Z,8.37
2017-09-26T00:51:44.234Z,8.37
2017-09-26T00:51:48.456Z,8.37
2017-09-26T00:51:52.928Z,8.36
2017-09-26T00:51:57.403Z,8.37
2017-09-26T00:52:01.879Z,8.37
2017-09-26T00:52:06.203Z,8.37
2017-09-26T00:52:10.681Z,8.37
2017-09-26T00:52:15.036Z,8.37
2017-09-26T00:52:19.143Z,8.37
2017-09-26T00:52:23.116Z,8.36
2017-09-26T00:52:27.090Z,8.36
2017-09-26T00:52:31.439Z,8.36
2017-09-26T00:52:35.661Z,8.36
2017-09-26T00:52:40.010Z,8.37
2017-09-26T00:52:44.490Z,8.37
2017-09-26T00:52:48.841Z,8.37
2017-09-26T00:52:52.816Z,8.37
2017-09-26T00:52:56.915Z,8.36
2017-09-26T00:53:01.018Z,8.37
2017-09-26T00:53:05.395Z,8.37
2017-09-26T00:53:09.874Z,8.36
2017-09-26T00:53:13.851Z,8.36
2017-09-26T00:53:17.954Z,8.37
2017-09-26T00:53:22.436Z,8.37
2017-09-26T00:53:26.536Z,8.36
2017-09-26T00:53:31.005Z,8.35
2017-09-26T00:53:35.228Z,8.36
2017-09-26T00:53:39.960Z,8.36
2017-09-26T00:53:43.937Z,8.36
2017-09-26T00:53:47.912Z,8.36
2017-09-26T00:53:52.635Z,8.36
2017-09-26T00:53:56.736Z,8.36
2017-09-26T00:54:01.209Z,8.36
2017-09-26T00:54:05.568Z,8.36
2017-09-26T00:54:09.672Z,8.36
2017-09-26T00:54:14.020Z,8.36
2017-09-26T00:54:18.245Z,8.35
2017-09-26T00:54:22.481Z,8.36
2017-09-26T00:54:26.454Z,8.35
2017-09-26T00:54:30.805Z,8.35
2017-09-26T00:54:35.153Z,8.36
2017-09-26T00:54:39.254Z,8.35
2017-09-26T00:54:43.730Z,8.36
2017-09-26T00:54:47.840Z,8.36
2017-09-26T00:54:51.938Z,8.35
2017-09-26T00:54:56.169Z,8.35
2017-09-26T00:55:00.646Z,8.36
2017-09-26T00:55:05.096Z,8.35
2017-09-26T00:55:09.566Z,8.36
2017-09-26T00:55:13.791Z,8.35
2017-09-26T00:55:17.893Z,8.35
2017-09-26T00:55:21.993Z,8.36
2017-09-26T00:55:26.597Z,8.36
2017-09-26T00:55:30.954Z,8.35
2017-09-26T00:55:35.052Z,8.36
2017-09-26T00:55:39.401Z,8.35
2017-09-26T00:55:43.499Z,8.35
2017-09-26T00:55:47.597Z,8.36
2017-09-26T00:55:51.945Z,8.35
2017-09-26T00:55:56.546Z,8.36
2017-09-26T00:56:00.905Z,8.36
2017-09-26T00:56:05.460Z,8.36
2017-09-26T00:56:09.950Z,8.35
2017-09-26T00:56:14.302Z,8.36
2017-09-26T00:56:18.529Z,8.35
2017-09-26T00:56:22.635Z,8.36
2017-09-26T00:56:26.734Z,8.35
2017-09-26T00:56:30.709Z,8.36
2017-09-26T00:56:35.192Z,8.36
2017-09-26T00:56:39.545Z,8.36
2017-09-26T00:56:43.897Z,8.36
2017-09-26T00:56:48.245Z,8.36
2017-09-26T00:56:52.345Z,8.36
2017-09-26T00:56:56.702Z,8.36
2017-09-26T00:57:00.925Z,8.36
2017-09-26T00:57:05.424Z,8.36
2017-09-26T00:57:09.522Z,8.36
2017-09-26T00:57:14.158Z,8.37
2017-09-26T00:57:18.256Z,8.37
2017-09-26T00:57:22.356Z,8.37
2017-09-26T00:57:26.966Z,8.37
2017-09-26T00:57:31.068Z,8.37
2017-09-26T00:57:35.544Z,8.37
2017-09-26T00:57:39.767Z,8.37
2017-09-26T00:57:43.994Z,8.36
2017-09-26T00:57:48.341Z,8.37